sensor_id;sensor_type;location;lat;lon;timestamp;P1;durP1;ratioP1;P2;durP2;ratioP2
49998;SDS011;68071;45.062;7.356;2023-04-24T00:01:46;11.88;;;10.63;;
49998;SDS011;68071;45.062;7.356;2023-04-24T00:04:50;11.82;;;10.65;;
49998;SDS011;68071;45.062;7.356;2023-04-24T00:07:54;11.25;;;10.13;;
49998;SDS011;68071;45.062;7.356;2023-04-24T00:10:58;13.98;;;10.48;;
49998;SDS011;68071;45.062;7.356;2023-04-24T00:14:03;11.13;;;10.13;;
49998;SDS011;68071;45.062;7.356;2023-04-24T00:17:07;10.65;;;9.65;;
49998;SDS011;68071;45.062;7.356;2023-04-24T00:20:10;8.77;;;7.93;;
49998;SDS011;68071;45.062;7.356;2023-04-24T00:23:14;8.55;;;7.53;;
49998;SDS011;68071;45.062;7.356;2023-04-24T00:26:18;8.52;;;7.68;;
49998;SDS011;68071;45.062;7.356;2023-04-24T00:29:22;7.93;;;7.22;;
49998;SDS011;68071;45.062;7.356;2023-04-24T00:32:29;7.50;;;6.80;;
49998;SDS011;68071;45.062;7.356;2023-04-24T00:35:33;7.88;;;7.18;;
49998;SDS011;68071;45.062;7.356;2023-04-24T00:38:38;7.82;;;7.03;;
49998;SDS011;68071;45.062;7.356;2023-04-24T00:41:41;4.00;;;3.58;;
49998;SDS011;68071;45.062;7.356;2023-04-24T00:44:46;12.95;;;11.75;;
49998;SDS011;68071;45.062;7.356;2023-04-24T00:47:51;10.63;;;9.63;;
49998;SDS011;68071;45.062;7.356;2023-04-24T00:50:57;12.23;;;10.98;;
49998;SDS011;68071;45.062;7.356;2023-04-24T00:54:02;6.45;;;5.72;;
49998;SDS011;68071;45.062;7.356;2023-04-24T00:57:05;4.90;;;3.60;;
49998;SDS011;68071;45.062;7.356;2023-04-24T01:00:10;4.35;;;3.35;;
49998;SDS011;68071;45.062;7.356;2023-04-24T01:03:15;8.00;;;7.30;;
49998;SDS011;68071;45.062;7.356;2023-04-24T01:06:20;3.30;;;3.00;;
49998;SDS011;68071;45.062;7.356;2023-04-24T01:09:25;10.07;;;9.07;;
49998;SDS011;68071;45.062;7.356;2023-04-24T01:12:30;10.38;;;9.38;;
49998;SDS011;68071;45.062;7.356;2023-04-24T01:15:34;3.33;;;2.75;;
49998;SDS011;68071;45.062;7.356;2023-04-24T01:18:38;4.35;;;3.95;;
49998;SDS011;68071;45.062;7.356;2023-04-24T01:21:42;6.68;;;6.07;;
49998;SDS011;68071;45.062;7.356;2023-04-24T01:24:47;7.00;;;4.60;;
49998;SDS011;68071;45.062;7.356;2023-04-24T01:27:51;3.70;;;3.22;;
49998;SDS011;68071;45.062;7.356;2023-04-24T01:30:55;4.60;;;4.00;;
49998;SDS011;68071;45.062;7.356;2023-04-24T01:34:00;5.10;;;4.43;;
49998;SDS011;68071;45.062;7.356;2023-04-24T01:37:05;9.52;;;8.57;;
49998;SDS011;68071;45.062;7.356;2023-04-24T01:40:09;9.27;;;8.38;;
49998;SDS011;68071;45.062;7.356;2023-04-24T01:43:13;7.07;;;6.45;;
49998;SDS011;68071;45.062;7.356;2023-04-24T01:46:18;7.40;;;6.70;;
49998;SDS011;68071;45.062;7.356;2023-04-24T01:49:22;6.38;;;4.75;;
49998;SDS011;68071;45.062;7.356;2023-04-24T01:52:27;8.68;;;7.85;;
49998;SDS011;68071;45.062;7.356;2023-04-24T01:55:34;11.23;;;10.23;;
49998;SDS011;68071;45.062;7.356;2023-04-24T01:58:38;12.35;;;11.05;;
49998;SDS011;68071;45.062;7.356;2023-04-24T02:01:42;8.95;;;8.20;;
49998;SDS011;68071;45.062;7.356;2023-04-24T02:04:46;9.15;;;8.27;;
49998;SDS011;68071;45.062;7.356;2023-04-24T02:07:50;13.73;;;12.30;;
49998;SDS011;68071;45.062;7.356;2023-04-24T02:10:54;14.95;;;13.45;;
49998;SDS011;68071;45.062;7.356;2023-04-24T02:13:58;6.72;;;6.03;;
49998;SDS011;68071;45.062;7.356;2023-04-24T02:17:02;11.07;;;9.98;;
49998;SDS011;68071;45.062;7.356;2023-04-24T02:20:07;9.40;;;8.50;;
49998;SDS011;68071;45.062;7.356;2023-04-24T02:23:11;8.32;;;7.45;;
49998;SDS011;68071;45.062;7.356;2023-04-24T02:26:17;9.02;;;8.15;;
49998;SDS011;68071;45.062;7.356;2023-04-24T02:29:22;8.77;;;7.97;;
49998;SDS011;68071;45.062;7.356;2023-04-24T02:32:27;14.35;;;12.85;;
49998;SDS011;68071;45.062;7.356;2023-04-24T02:35:31;9.48;;;8.57;;
49998;SDS011;68071;45.062;7.356;2023-04-24T02:38:35;13.75;;;12.35;;
49998;SDS011;68071;45.062;7.356;2023-04-24T02:41:39;8.05;;;6.85;;
49998;SDS011;68071;45.062;7.356;2023-04-24T02:44:44;14.68;;;11.65;;
49998;SDS011;68071;45.062;7.356;2023-04-24T02:47:47;13.75;;;12.32;;
49998;SDS011;68071;45.062;7.356;2023-04-24T02:50:51;18.13;;;16.23;;
49998;SDS011;68071;45.062;7.356;2023-04-24T02:53:56;16.58;;;14.30;;
49998;SDS011;68071;45.062;7.356;2023-04-24T02:57:00;17.15;;;15.45;;
49998;SDS011;68071;45.062;7.356;2023-04-24T03:00:05;11.15;;;9.60;;
49998;SDS011;68071;45.062;7.356;2023-04-24T03:03:10;19.35;;;17.35;;
49998;SDS011;68071;45.062;7.356;2023-04-24T03:06:14;10.90;;;9.90;;
49998;SDS011;68071;45.062;7.356;2023-04-24T03:09:18;9.65;;;8.70;;
49998;SDS011;68071;45.062;7.356;2023-04-24T03:12:25;16.13;;;14.38;;
49998;SDS011;68071;45.062;7.356;2023-04-24T03:15:29;10.30;;;8.90;;
49998;SDS011;68071;45.062;7.356;2023-04-24T03:18:33;18.25;;;16.33;;
49998;SDS011;68071;45.062;7.356;2023-04-24T03:21:38;10.07;;;9.18;;
49998;SDS011;68071;45.062;7.356;2023-04-24T03:24:44;17.15;;;15.50;;
49998;SDS011;68071;45.062;7.356;2023-04-24T03:27:51;14.07;;;12.68;;
49998;SDS011;68071;45.062;7.356;2023-04-24T03:31:18;15.73;;;13.95;;
49998;SDS011;68071;45.062;7.356;2023-04-24T03:34:25;13.85;;;12.38;;
49998;SDS011;68071;45.062;7.356;2023-04-24T03:37:29;13.15;;;11.85;;
49998;SDS011;68071;45.062;7.356;2023-04-24T03:40:47;16.35;;;14.20;;
49998;SDS011;68071;45.062;7.356;2023-04-24T03:44:08;11.20;;;10.00;;
49998;SDS011;68071;45.062;7.356;2023-04-24T03:47:13;13.82;;;12.32;;
49998;SDS011;68071;45.062;7.356;2023-04-24T03:50:18;13.43;;;12.13;;
49998;SDS011;68071;45.062;7.356;2023-04-24T03:53:22;13.68;;;11.95;;
49998;SDS011;68071;45.062;7.356;2023-04-24T03:56:27;10.75;;;9.75;;
49998;SDS011;68071;45.062;7.356;2023-04-24T03:59:32;12.05;;;10.85;;
49998;SDS011;68071;45.062;7.356;2023-04-24T04:02:56;14.48;;;12.98;;
49998;SDS011;68071;45.062;7.356;2023-04-24T04:06:00;11.27;;;9.93;;
49998;SDS011;68071;45.062;7.356;2023-04-24T04:09:04;9.60;;;8.68;;
49998;SDS011;68071;45.062;7.356;2023-04-24T04:12:08;17.45;;;15.65;;
49998;SDS011;68071;45.062;7.356;2023-04-24T04:15:12;15.82;;;14.18;;
49998;SDS011;68071;45.062;7.356;2023-04-24T04:18:19;15.20;;;13.63;;
49998;SDS011;68071;45.062;7.356;2023-04-24T04:21:24;12.32;;;11.13;;
49998;SDS011;68071;45.062;7.356;2023-04-24T04:24:34;11.68;;;10.57;;
49998;SDS011;68071;45.062;7.356;2023-04-24T04:27:42;14.07;;;12.63;;
49998;SDS011;68071;45.062;7.356;2023-04-24T04:30:48;8.57;;;7.78;;
49998;SDS011;68071;45.062;7.356;2023-04-24T04:33:53;10.13;;;9.15;;
49998;SDS011;68071;45.062;7.356;2023-04-24T04:36:59;7.57;;;6.70;;
49998;SDS011;68071;45.062;7.356;2023-04-24T04:40:16;10.57;;;9.35;;
49998;SDS011;68071;45.062;7.356;2023-04-24T04:43:29;8.98;;;8.15;;
49998;SDS011;68071;45.062;7.356;2023-04-24T04:46:35;7.03;;;6.32;;
49998;SDS011;68071;45.062;7.356;2023-04-24T04:50:09;8.80;;;8.00;;
49998;SDS011;68071;45.062;7.356;2023-04-24T04:53:14;6.45;;;5.82;;
49998;SDS011;68071;45.062;7.356;2023-04-24T04:56:20;11.93;;;10.65;;
49998;SDS011;68071;45.062;7.356;2023-04-24T04:59:24;11.65;;;10.20;;
49998;SDS011;68071;45.062;7.356;2023-04-24T05:02:34;11.80;;;10.60;;
49998;SDS011;68071;45.062;7.356;2023-04-24T05:05:38;8.20;;;7.40;;
49998;SDS011;68071;45.062;7.356;2023-04-24T05:08:47;9.48;;;8.40;;
49998;SDS011;68071;45.062;7.356;2023-04-24T05:12:04;13.30;;;11.90;;
49998;SDS011;68071;45.062;7.356;2023-04-24T05:15:13;11.68;;;10.52;;
49998;SDS011;68071;45.062;7.356;2023-04-24T05:18:17;13.02;;;11.73;;
49998;SDS011;68071;45.062;7.356;2023-04-24T05:21:22;9.13;;;8.23;;
49998;SDS011;68071;45.062;7.356;2023-04-24T05:24:28;10.25;;;8.38;;
49998;SDS011;68071;45.062;7.356;2023-04-24T05:27:48;7.57;;;6.80;;
49998;SDS011;68071;45.062;7.356;2023-04-24T05:30:55;10.40;;;9.38;;
49998;SDS011;68071;45.062;7.356;2023-04-24T05:34:01;8.63;;;7.82;;
49998;SDS011;68071;45.062;7.356;2023-04-24T05:37:05;9.05;;;8.18;;
49998;SDS011;68071;45.062;7.356;2023-04-24T05:40:12;9.75;;;8.70;;
49998;SDS011;68071;45.062;7.356;2023-04-24T05:43:16;8.63;;;7.72;;
49998;SDS011;68071;45.062;7.356;2023-04-24T05:46:20;9.75;;;8.10;;
49998;SDS011;68071;45.062;7.356;2023-04-24T05:49:24;9.07;;;7.82;;
49998;SDS011;68071;45.062;7.356;2023-04-24T05:52:28;11.25;;;10.10;;
49998;SDS011;68071;45.062;7.356;2023-04-24T05:55:32;11.45;;;10.30;;
49998;SDS011;68071;45.062;7.356;2023-04-24T05:58:36;10.32;;;9.30;;
49998;SDS011;68071;45.062;7.356;2023-04-24T06:01:41;12.50;;;10.07;;
49998;SDS011;68071;45.062;7.356;2023-04-24T06:04:51;10.88;;;9.85;;
49998;SDS011;68071;45.062;7.356;2023-04-24T06:07:55;12.23;;;9.95;;
49998;SDS011;68071;45.062;7.356;2023-04-24T06:11:03;10.60;;;9.60;;
49998;SDS011;68071;45.062;7.356;2023-04-24T06:14:07;10.07;;;9.18;;
49998;SDS011;68071;45.062;7.356;2023-04-24T06:17:14;9.73;;;8.82;;
49998;SDS011;68071;45.062;7.356;2023-04-24T06:20:19;10.98;;;9.95;;
49998;SDS011;68071;45.062;7.356;2023-04-24T06:23:23;9.77;;;8.88;;
49998;SDS011;68071;45.062;7.356;2023-04-24T06:26:27;9.27;;;8.05;;
49998;SDS011;68071;45.062;7.356;2023-04-24T06:29:32;9.63;;;8.52;;
49998;SDS011;68071;45.062;7.356;2023-04-24T06:32:37;9.32;;;8.38;;
49998;SDS011;68071;45.062;7.356;2023-04-24T06:35:40;10.00;;;9.00;;
49998;SDS011;68071;45.062;7.356;2023-04-24T06:38:44;8.77;;;7.90;;
49998;SDS011;68071;45.062;7.356;2023-04-24T06:41:49;8.57;;;7.78;;
49998;SDS011;68071;45.062;7.356;2023-04-24T06:44:57;9.30;;;8.27;;
49998;SDS011;68071;45.062;7.356;2023-04-24T06:48:01;8.25;;;7.45;;
49998;SDS011;68071;45.062;7.356;2023-04-24T06:51:04;8.10;;;7.32;;
49998;SDS011;68071;45.062;7.356;2023-04-24T06:54:09;7.97;;;7.18;;
49998;SDS011;68071;45.062;7.356;2023-04-24T06:57:13;7.90;;;7.20;;
49998;SDS011;68071;45.062;7.356;2023-04-24T07:00:17;8.85;;;7.05;;
49998;SDS011;68071;45.062;7.356;2023-04-24T07:03:22;7.28;;;6.57;;
49998;SDS011;68071;45.062;7.356;2023-04-24T07:06:26;8.65;;;7.80;;
49998;SDS011;68071;45.062;7.356;2023-04-24T07:09:30;7.75;;;6.63;;
49998;SDS011;68071;45.062;7.356;2023-04-24T07:12:35;7.28;;;6.57;;
49998;SDS011;68071;45.062;7.356;2023-04-24T07:15:39;7.18;;;6.45;;
49998;SDS011;68071;45.062;7.356;2023-04-24T07:18:44;6.90;;;6.20;;
49998;SDS011;68071;45.062;7.356;2023-04-24T07:21:48;6.45;;;5.85;;
49998;SDS011;68071;45.062;7.356;2023-04-24T07:24:53;7.65;;;6.78;;
49998;SDS011;68071;45.062;7.356;2023-04-24T07:27:56;6.90;;;5.82;;
49998;SDS011;68071;45.062;7.356;2023-04-24T07:31:01;6.30;;;5.75;;
49998;SDS011;68071;45.062;7.356;2023-04-24T07:34:05;7.20;;;6.50;;
49998;SDS011;68071;45.062;7.356;2023-04-24T07:37:09;6.93;;;5.57;;
49998;SDS011;68071;45.062;7.356;2023-04-24T07:40:13;6.65;;;5.55;;
49998;SDS011;68071;45.062;7.356;2023-04-24T07:43:17;7.57;;;6.88;;
49998;SDS011;68071;45.062;7.356;2023-04-24T07:46:23;6.80;;;6.05;;
49998;SDS011;68071;45.062;7.356;2023-04-24T07:49:27;5.50;;;4.90;;
49998;SDS011;68071;45.062;7.356;2023-04-24T07:52:32;7.50;;;6.80;;
49998;SDS011;68071;45.062;7.356;2023-04-24T07:55:35;5.70;;;5.20;;
49998;SDS011;68071;45.062;7.356;2023-04-24T07:58:39;7.00;;;6.30;;
49998;SDS011;68071;45.062;7.356;2023-04-24T08:01:43;6.40;;;5.80;;
49998;SDS011;68071;45.062;7.356;2023-04-24T08:04:47;5.88;;;5.22;;
49998;SDS011;68071;45.062;7.356;2023-04-24T08:07:51;5.10;;;4.60;;
49998;SDS011;68071;45.062;7.356;2023-04-24T08:10:55;5.03;;;4.43;;
49998;SDS011;68071;45.062;7.356;2023-04-24T08:13:59;5.75;;;5.15;;
49998;SDS011;68071;45.062;7.356;2023-04-24T08:17:03;7.30;;;5.65;;
49998;SDS011;68071;45.062;7.356;2023-04-24T08:20:07;7.47;;;5.55;;
49998;SDS011;68071;45.062;7.356;2023-04-24T08:23:16;6.50;;;5.80;;
49998;SDS011;68071;45.062;7.356;2023-04-24T08:26:21;5.88;;;5.38;;
49998;SDS011;68071;45.062;7.356;2023-04-24T08:29:25;6.13;;;5.47;;
49998;SDS011;68071;45.062;7.356;2023-04-24T08:32:30;6.10;;;5.50;;
49998;SDS011;68071;45.062;7.356;2023-04-24T08:35:34;5.82;;;5.07;;
49998;SDS011;68071;45.062;7.356;2023-04-24T08:38:37;9.55;;;5.80;;
49998;SDS011;68071;45.062;7.356;2023-04-24T08:41:42;8.07;;;5.82;;
49998;SDS011;68071;45.062;7.356;2023-04-24T08:44:47;6.50;;;5.88;;
49998;SDS011;68071;45.062;7.356;2023-04-24T08:47:53;8.05;;;6.30;;
49998;SDS011;68071;45.062;7.356;2023-04-24T08:51:00;8.00;;;7.20;;
49998;SDS011;68071;45.062;7.356;2023-04-24T08:54:05;7.88;;;5.88;;
49998;SDS011;68071;45.062;7.356;2023-04-24T08:57:10;6.65;;;5.38;;
49998;SDS011;68071;45.062;7.356;2023-04-24T09:00:18;5.10;;;4.60;;
49998;SDS011;68071;45.062;7.356;2023-04-24T09:03:24;8.63;;;7.75;;
49998;SDS011;68071;45.062;7.356;2023-04-24T09:06:31;7.53;;;6.68;;
49998;SDS011;68071;45.062;7.356;2023-04-24T09:09:36;6.35;;;5.55;;
49998;SDS011;68071;45.062;7.356;2023-04-24T09:12:42;7.75;;;7.05;;
49998;SDS011;68071;45.062;7.356;2023-04-24T09:15:47;7.20;;;5.47;;
49998;SDS011;68071;45.062;7.356;2023-04-24T09:18:51;7.03;;;5.93;;
49998;SDS011;68071;45.062;7.356;2023-04-24T09:21:56;5.85;;;5.10;;
49998;SDS011;68071;45.062;7.356;2023-04-24T09:25:03;6.60;;;4.70;;
49998;SDS011;68071;45.062;7.356;2023-04-24T09:28:12;5.25;;;4.50;;
49998;SDS011;68071;45.062;7.356;2023-04-24T09:31:19;4.95;;;4.00;;
49998;SDS011;68071;45.062;7.356;2023-04-24T09:34:26;7.32;;;4.85;;
49998;SDS011;68071;45.062;7.356;2023-04-24T09:40:38;6.50;;;5.43;;
49998;SDS011;68071;45.062;7.356;2023-04-24T09:43:43;6.80;;;6.10;;
49998;SDS011;68071;45.062;7.356;2023-04-24T09:46:54;7.93;;;6.75;;
49998;SDS011;68071;45.062;7.356;2023-04-24T09:50:09;7.07;;;6.03;;
49998;SDS011;68071;45.062;7.356;2023-04-24T09:53:18;8.13;;;6.32;;
49998;SDS011;68071;45.062;7.356;2023-04-24T09:56:27;8.82;;;7.50;;
49998;SDS011;68071;45.062;7.356;2023-04-24T09:59:31;7.65;;;6.95;;
49998;SDS011;68071;45.062;7.356;2023-04-24T10:02:35;9.70;;;8.60;;
49998;SDS011;68071;45.062;7.356;2023-04-24T10:05:39;8.00;;;6.82;;
49998;SDS011;68071;45.062;7.356;2023-04-24T10:08:45;9.63;;;8.60;;
49998;SDS011;68071;45.062;7.356;2023-04-24T10:11:50;8.93;;;8.13;;
49998;SDS011;68071;45.062;7.356;2023-04-24T10:14:57;8.43;;;7.68;;
49998;SDS011;68071;45.062;7.356;2023-04-24T10:18:01;8.65;;;7.47;;
49998;SDS011;68071;45.062;7.356;2023-04-24T10:21:07;8.20;;;7.00;;
49998;SDS011;68071;45.062;7.356;2023-04-24T10:24:12;11.00;;;8.70;;
49998;SDS011;68071;45.062;7.356;2023-04-24T10:27:25;10.15;;;8.68;;
49998;SDS011;68071;45.062;7.356;2023-04-24T10:30:49;8.10;;;7.32;;
49998;SDS011;68071;45.062;7.356;2023-04-24T10:33:58;8.80;;;6.68;;
49998;SDS011;68071;45.062;7.356;2023-04-24T10:37:04;7.57;;;6.88;;
49998;SDS011;68071;45.062;7.356;2023-04-24T10:40:09;9.55;;;7.90;;
49998;SDS011;68071;45.062;7.356;2023-04-24T10:46:20;8.30;;;7.10;;
49998;SDS011;68071;45.062;7.356;2023-04-24T10:49:28;9.40;;;7.13;;
49998;SDS011;68071;45.062;7.356;2023-04-24T10:52:44;7.93;;;7.07;;
49998;SDS011;68071;45.062;7.356;2023-04-24T10:55:56;8.50;;;7.70;;
49998;SDS011;68071;45.062;7.356;2023-04-24T10:59:02;6.50;;;5.35;;
49998;SDS011;68071;45.062;7.356;2023-04-24T11:02:16;5.88;;;4.50;;
49998;SDS011;68071;45.062;7.356;2023-04-24T11:05:21;2.35;;;0.38;;
49998;SDS011;68071;45.062;7.356;2023-04-24T11:08:27;1.27;;;0.40;;
49998;SDS011;68071;45.062;7.356;2023-04-24T11:11:50;1.10;;;0.60;;
49998;SDS011;68071;45.062;7.356;2023-04-24T11:18:01;0.52;;;0.30;;
49998;SDS011;68071;45.062;7.356;2023-04-24T11:21:12;0.70;;;0.20;;
49998;SDS011;68071;45.062;7.356;2023-04-24T11:27:45;0.30;;;0.10;;
49998;SDS011;68071;45.062;7.356;2023-04-24T11:30:50;0.20;;;0.10;;
49998;SDS011;68071;45.062;7.356;2023-04-24T11:33:54;0.35;;;0.20;;
49998;SDS011;68071;45.062;7.356;2023-04-24T11:36:58;0.10;;;0.10;;
49998;SDS011;68071;45.062;7.356;2023-04-24T11:40:07;0.60;;;0.20;;
49998;SDS011;68071;45.062;7.356;2023-04-24T11:43:13;0.65;;;0.15;;
49998;SDS011;68071;45.062;7.356;2023-04-24T11:46:22;0.40;;;0.10;;
49998;SDS011;68071;45.062;7.356;2023-04-24T11:49:26;0.22;;;0.10;;
49998;SDS011;68071;45.062;7.356;2023-04-24T11:52:30;0.35;;;0.10;;
49998;SDS011;68071;45.062;7.356;2023-04-24T11:55:35;0.95;;;0.30;;
49998;SDS011;68071;45.062;7.356;2023-04-24T11:58:39;2.28;;;0.15;;
49998;SDS011;68071;45.062;7.356;2023-04-24T12:01:44;1.27;;;0.30;;
49998;SDS011;68071;45.062;7.356;2023-04-24T12:04:49;1.75;;;0.38;;
49998;SDS011;68071;45.062;7.356;2023-04-24T12:07:54;1.05;;;0.20;;
49998;SDS011;68071;45.062;7.356;2023-04-24T12:10:58;0.88;;;0.20;;
49998;SDS011;68071;45.062;7.356;2023-04-24T12:14:11;1.23;;;0.47;;
49998;SDS011;68071;45.062;7.356;2023-04-24T12:17:16;1.67;;;0.20;;
49998;SDS011;68071;45.062;7.356;2023-04-24T12:20:28;0.43;;;0.20;;
49998;SDS011;68071;45.062;7.356;2023-04-24T12:23:34;0.20;;;0.10;;
49998;SDS011;68071;45.062;7.356;2023-04-24T12:26:42;0.45;;;0.10;;
49998;SDS011;68071;45.062;7.356;2023-04-24T12:29:56;0.55;;;0.20;;
49998;SDS011;68071;45.062;7.356;2023-04-24T12:33:02;1.23;;;0.25;;
49998;SDS011;68071;45.062;7.356;2023-04-24T12:36:06;0.40;;;0.28;;
49998;SDS011;68071;45.062;7.356;2023-04-24T12:39:17;0.50;;;0.20;;
49998;SDS011;68071;45.062;7.356;2023-04-24T12:42:29;1.42;;;0.30;;
49998;SDS011;68071;45.062;7.356;2023-04-24T12:45:34;0.93;;;0.30;;
49998;SDS011;68071;45.062;7.356;2023-04-24T12:48:38;0.68;;;0.45;;
49998;SDS011;68071;45.062;7.356;2023-04-24T12:51:42;0.45;;;0.20;;
49998;SDS011;68071;45.062;7.356;2023-04-24T12:54:46;0.70;;;0.35;;
49998;SDS011;68071;45.062;7.356;2023-04-24T12:57:50;0.90;;;0.30;;
49998;SDS011;68071;45.062;7.356;2023-04-24T13:00:55;0.40;;;0.20;;
49998;SDS011;68071;45.062;7.356;2023-04-24T13:03:59;1.10;;;0.30;;
49998;SDS011;68071;45.062;7.356;2023-04-24T13:07:04;0.25;;;0.10;;
49998;SDS011;68071;45.062;7.356;2023-04-24T13:10:09;0.82;;;0.20;;
49998;SDS011;68071;45.062;7.356;2023-04-24T13:13:13;1.27;;;0.30;;
49998;SDS011;68071;45.062;7.356;2023-04-24T13:16:18;0.68;;;0.25;;
49998;SDS011;68071;45.062;7.356;2023-04-24T13:19:24;0.38;;;0.20;;
49998;SDS011;68071;45.062;7.356;2023-04-24T13:22:29;1.27;;;0.50;;
49998;SDS011;68071;45.062;7.356;2023-04-24T13:25:35;0.45;;;0.20;;
49998;SDS011;68071;45.062;7.356;2023-04-24T13:28:40;1.10;;;0.22;;
49998;SDS011;68071;45.062;7.356;2023-04-24T13:31:44;1.30;;;0.20;;
49998;SDS011;68071;45.062;7.356;2023-04-24T13:34:49;1.58;;;0.30;;
49998;SDS011;68071;45.062;7.356;2023-04-24T13:37:53;1.33;;;0.28;;
49998;SDS011;68071;45.062;7.356;2023-04-24T13:40:58;0.97;;;0.30;;
49998;SDS011;68071;45.062;7.356;2023-04-24T13:44:02;1.08;;;0.30;;
49998;SDS011;68071;45.062;7.356;2023-04-24T13:47:06;1.75;;;0.22;;
49998;SDS011;68071;45.062;7.356;2023-04-24T13:50:10;0.80;;;0.30;;
49998;SDS011;68071;45.062;7.356;2023-04-24T13:53:15;1.02;;;0.30;;
49998;SDS011;68071;45.062;7.356;2023-04-24T13:56:19;0.55;;;0.30;;
49998;SDS011;68071;45.062;7.356;2023-04-24T13:59:23;1.25;;;0.40;;
49998;SDS011;68071;45.062;7.356;2023-04-24T14:02:27;0.52;;;0.22;;
49998;SDS011;68071;45.062;7.356;2023-04-24T14:05:31;0.47;;;0.30;;
49998;SDS011;68071;45.062;7.356;2023-04-24T14:08:35;0.90;;;0.43;;
49998;SDS011;68071;45.062;7.356;2023-04-24T14:11:39;0.50;;;0.30;;
49998;SDS011;68071;45.062;7.356;2023-04-24T14:14:44;0.82;;;0.35;;
49998;SDS011;68071;45.062;7.356;2023-04-24T14:17:48;0.98;;;0.30;;
49998;SDS011;68071;45.062;7.356;2023-04-24T14:20:53;0.40;;;0.30;;
49998;SDS011;68071;45.062;7.356;2023-04-24T14:23:57;1.02;;;0.30;;
49998;SDS011;68071;45.062;7.356;2023-04-24T14:27:00;0.40;;;0.28;;
49998;SDS011;68071;45.062;7.356;2023-04-24T14:30:06;0.98;;;0.22;;
49998;SDS011;68071;45.062;7.356;2023-04-24T14:33:11;1.00;;;0.20;;
49998;SDS011;68071;45.062;7.356;2023-04-24T14:36:16;1.02;;;0.40;;
49998;SDS011;68071;45.062;7.356;2023-04-24T14:39:20;2.20;;;0.30;;
49998;SDS011;68071;45.062;7.356;2023-04-24T14:42:25;0.40;;;0.30;;
49998;SDS011;68071;45.062;7.356;2023-04-24T14:45:29;0.60;;;0.30;;
49998;SDS011;68071;45.062;7.356;2023-04-24T14:48:33;0.50;;;0.20;;
49998;SDS011;68071;45.062;7.356;2023-04-24T14:51:37;0.90;;;0.30;;
49998;SDS011;68071;45.062;7.356;2023-04-24T14:54:42;0.50;;;0.20;;
49998;SDS011;68071;45.062;7.356;2023-04-24T14:57:46;0.73;;;0.20;;
49998;SDS011;68071;45.062;7.356;2023-04-24T15:00:50;0.32;;;0.17;;
49998;SDS011;68071;45.062;7.356;2023-04-24T15:03:55;0.75;;;0.40;;
49998;SDS011;68071;45.062;7.356;2023-04-24T15:06:58;1.02;;;0.40;;
49998;SDS011;68071;45.062;7.356;2023-04-24T15:10:03;0.80;;;0.50;;
49998;SDS011;68071;45.062;7.356;2023-04-24T15:13:08;0.85;;;0.47;;
49998;SDS011;68071;45.062;7.356;2023-04-24T15:16:12;1.33;;;0.70;;
49998;SDS011;68071;45.062;7.356;2023-04-24T15:19:16;0.75;;;0.30;;
49998;SDS011;68071;45.062;7.356;2023-04-24T15:22:20;2.72;;;0.65;;
49998;SDS011;68071;45.062;7.356;2023-04-24T15:25:25;0.47;;;0.30;;
49998;SDS011;68071;45.062;7.356;2023-04-24T15:28:29;0.50;;;0.30;;
49998;SDS011;68071;45.062;7.356;2023-04-24T15:31:33;1.92;;;0.50;;
49998;SDS011;68071;45.062;7.356;2023-04-24T15:34:37;1.63;;;0.50;;
49998;SDS011;68071;45.062;7.356;2023-04-24T15:37:41;0.98;;;0.35;;
49998;SDS011;68071;45.062;7.356;2023-04-24T15:40:45;0.82;;;0.30;;
49998;SDS011;68071;45.062;7.356;2023-04-24T15:43:49;0.85;;;0.30;;
49998;SDS011;68071;45.062;7.356;2023-04-24T15:46:53;0.30;;;0.20;;
49998;SDS011;68071;45.062;7.356;2023-04-24T15:49:58;1.17;;;0.20;;
49998;SDS011;68071;45.062;7.356;2023-04-24T15:53:03;0.97;;;0.47;;
49998;SDS011;68071;45.062;7.356;2023-04-24T15:56:07;0.40;;;0.28;;
49998;SDS011;68071;45.062;7.356;2023-04-24T15:59:11;0.77;;;0.20;;
49998;SDS011;68071;45.062;7.356;2023-04-24T16:02:15;0.30;;;0.28;;
49998;SDS011;68071;45.062;7.356;2023-04-24T16:05:22;1.13;;;0.47;;
49998;SDS011;68071;45.062;7.356;2023-04-24T16:08:27;0.65;;;0.28;;
49998;SDS011;68071;45.062;7.356;2023-04-24T16:11:32;0.68;;;0.30;;
49998;SDS011;68071;45.062;7.356;2023-04-24T16:14:39;0.57;;;0.25;;
49998;SDS011;68071;45.062;7.356;2023-04-24T16:17:44;1.30;;;0.50;;
49998;SDS011;68071;45.062;7.356;2023-04-24T16:20:48;0.55;;;0.28;;
49998;SDS011;68071;45.062;7.356;2023-04-24T16:23:52;2.17;;;0.30;;
49998;SDS011;68071;45.062;7.356;2023-04-24T16:26:56;0.38;;;0.30;;
49998;SDS011;68071;45.062;7.356;2023-04-24T16:30:01;1.00;;;0.47;;
49998;SDS011;68071;45.062;7.356;2023-04-24T16:33:06;1.10;;;0.40;;
49998;SDS011;68071;45.062;7.356;2023-04-24T16:39:15;0.70;;;0.30;;
49998;SDS011;68071;45.062;7.356;2023-04-24T16:42:19;0.70;;;0.30;;
49998;SDS011;68071;45.062;7.356;2023-04-24T16:45:23;0.95;;;0.40;;
49998;SDS011;68071;45.062;7.356;2023-04-24T16:48:27;0.82;;;0.30;;
49998;SDS011;68071;45.062;7.356;2023-04-24T16:51:32;0.70;;;0.40;;
49998;SDS011;68071;45.062;7.356;2023-04-24T16:54:36;0.90;;;0.40;;
49998;SDS011;68071;45.062;7.356;2023-04-24T16:57:41;0.85;;;0.40;;
49998;SDS011;68071;45.062;7.356;2023-04-24T17:00:45;1.00;;;0.40;;
49998;SDS011;68071;45.062;7.356;2023-04-24T17:03:51;0.73;;;0.50;;
49998;SDS011;68071;45.062;7.356;2023-04-24T17:06:55;0.63;;;0.40;;
49998;SDS011;68071;45.062;7.356;2023-04-24T17:09:59;1.10;;;0.30;;
49998;SDS011;68071;45.062;7.356;2023-04-24T17:13:03;0.50;;;0.30;;
49998;SDS011;68071;45.062;7.356;2023-04-24T17:16:07;1.23;;;0.52;;
49998;SDS011;68071;45.062;7.356;2023-04-24T17:19:11;0.70;;;0.50;;
49998;SDS011;68071;45.062;7.356;2023-04-24T17:22:14;2.35;;;0.50;;
49998;SDS011;68071;45.062;7.356;2023-04-24T17:25:19;0.63;;;0.40;;
49998;SDS011;68071;45.062;7.356;2023-04-24T17:31:29;1.00;;;0.40;;
49998;SDS011;68071;45.062;7.356;2023-04-24T17:34:33;2.53;;;0.50;;
49998;SDS011;68071;45.062;7.356;2023-04-24T17:37:37;1.17;;;0.55;;
49998;SDS011;68071;45.062;7.356;2023-04-24T17:40:41;0.90;;;0.50;;
49998;SDS011;68071;45.062;7.356;2023-04-24T17:43:46;0.57;;;0.30;;
49998;SDS011;68071;45.062;7.356;2023-04-24T17:46:50;0.65;;;0.40;;
49998;SDS011;68071;45.062;7.356;2023-04-24T17:49:54;0.82;;;0.50;;
49998;SDS011;68071;45.062;7.356;2023-04-24T17:52:57;1.10;;;0.60;;
49998;SDS011;68071;45.062;7.356;2023-04-24T17:56:01;1.27;;;0.40;;
49998;SDS011;68071;45.062;7.356;2023-04-24T17:59:06;1.00;;;0.40;;
49998;SDS011;68071;45.062;7.356;2023-04-24T18:02:10;1.92;;;0.40;;
49998;SDS011;68071;45.062;7.356;2023-04-24T18:05:14;0.93;;;0.50;;
49998;SDS011;68071;45.062;7.356;2023-04-24T18:08:18;2.08;;;0.50;;
49998;SDS011;68071;45.062;7.356;2023-04-24T18:11:23;0.88;;;0.40;;
49998;SDS011;68071;45.062;7.356;2023-04-24T18:14:28;1.10;;;0.50;;
49998;SDS011;68071;45.062;7.356;2023-04-24T18:17:32;0.68;;;0.40;;
49998;SDS011;68071;45.062;7.356;2023-04-24T18:20:36;0.52;;;0.30;;
49998;SDS011;68071;45.062;7.356;2023-04-24T18:23:40;0.75;;;0.40;;
49998;SDS011;68071;45.062;7.356;2023-04-24T18:26:44;1.42;;;0.50;;
49998;SDS011;68071;45.062;7.356;2023-04-24T18:29:49;0.75;;;0.40;;
49998;SDS011;68071;45.062;7.356;2023-04-24T18:35:58;1.45;;;0.47;;
49998;SDS011;68071;45.062;7.356;2023-04-24T18:39:03;1.38;;;0.50;;
49998;SDS011;68071;45.062;7.356;2023-04-24T18:42:07;1.53;;;0.50;;
49998;SDS011;68071;45.062;7.356;2023-04-24T18:45:12;1.50;;;0.50;;
49998;SDS011;68071;45.062;7.356;2023-04-24T18:48:16;2.28;;;0.60;;
49998;SDS011;68071;45.062;7.356;2023-04-24T18:51:20;1.92;;;0.57;;
49998;SDS011;68071;45.062;7.356;2023-04-24T18:54:25;1.27;;;0.50;;